Portada
METAR-TAF:

METAR-TAF

Aeroports :

Manado, Indonèsia

latitud: 01-32N, longitud: 124-55E, altitud: 80 m

Observació

L'informe es va fer fa 18 minuts, a les 21:00 UTC
Vent calma
Temperatura 23°C
Humitat 100%
Pressió 1009 hPa
Visibilitat: 9000 m
Escasses núvols a una alçada de 2100 ft

METAR: WAMM 192100Z 00000KT 9000 FEW021 23/23 Q1009 NOSIG

Hora: 04:18 (21:18 UTC)

Pronòstic

L'informe es va fer fa 10 hores i 48 minuts, a les 10:30 UTC
Pronòstic vàlid del 19 a les 12 UTC al 20 a les 18 UTC
Vent 5 kt del Oest
Visibilitat 10 km o més
Núvols disperses a una alçada de 2100 ft
Probabilitat 40% :
Temporalment
l' 19 a les 15 UTC al 19 a les 19 UTC
Visibilitat: 5000 m
Escasses núvols a una alçada de 1600 ft, Cumulonimbus.
pluja
Evolucionant progressivament
l' 19 a les 23 UTC al 20 a les 01 UTC
Vent 2 kt amb direcció variable

TAF: WAMM 191030Z 1912/2018 27005KT 9999 SCT021 PROB40 TEMPO 1915/1919 5000 RA FEW016CB BECMG 1923/2001 VRB02KT

Observacions i pronòstics meteorològics de més de 4000 aeroports (METAR i TAF).

Les estacions disponibles són els punts grocs i vermells al mapa.

Posi el ratolí al punt desitjat per veure el nom de l'estació.

Feu clic per veure les observacions i els pronòstics meteorològics.

Per canviar el mapa: feu clic els botons verds amb una creu de color negre per apropar; al botó verd amb un guió per allunyar la imatge; o en les fletxes verdes per a mapes adjacents.


METAR-TAF: